Time;durP1;ratioP1;P1;durP2;ratioP2;P2;SDS_P1;SDS_P2;PMS_P1;PMS_P2;Temp;Humidity;BMP_temperature;BMP_pressure;BME280_temperature;BME280_humidity;BME280_pressure;Samples;Min_cycle;Max_cycle;Signal;HPM_P1;HPM_P2
2023/12/21 00:00:36;;;;;;;6.65;5.43;;;9.30;75.00;;;;;;5137173;27;20461;-82
2023/12/21 00:03:02;;;;;;;6.63;4.95;;;9.30;75.10;;;;;;5135572;27;20051;-81
2023/12/21 00:05:28;;;;;;;6.65;4.68;;;9.30;75.10;;;;;;5104778;27;20027;-81
2023/12/21 00:07:53;;;;;;;5.55;4.88;;;9.30;75.10;;;;;;5130396;27;20028;-81
2023/12/21 00:10:19;;;;;;;6.45;5.43;;;9.30;75.10;;;;;;5123677;27;20027;-81
2023/12/21 00:12:45;;;;;;;5.80;4.63;;;9.30;75.10;;;;;;5107681;28;20031;-81
2023/12/21 00:15:11;;;;;;;6.15;4.90;;;9.30;75.10;;;;;;5132702;27;20468;-82
2023/12/21 00:17:37;;;;;;;6.13;4.93;;;9.20;75.00;;;;;;5098201;28;20097;-81
2023/12/21 00:20:03;;;;;;;6.57;5.25;;;9.30;75.10;;;;;;5117106;27;20377;-82
2023/12/21 00:22:28;;;;;;;6.30;5.15;;;9.30;75.00;;;;;;5120345;27;20035;-81
2023/12/21 00:24:54;;;;;;;9.27;5.45;;;9.30;75.00;;;;;;5121133;27;20061;-81
2023/12/21 00:27:20;;;;;;;6.10;4.78;;;9.30;75.00;;;;;;5122655;27;20034;-82
2023/12/21 00:29:46;;;;;;;6.70;5.07;;;9.20;75.00;;;;;;5125658;27;20027;-82
2023/12/21 00:32:11;;;;;;;6.72;5.20;;;9.20;75.00;;;;;;5111070;27;20027;-82
2023/12/21 00:34:37;;;;;;;7.95;5.50;;;9.20;75.00;;;;;;5123679;27;20043;-81
2023/12/21 00:37:03;;;;;;;7.03;5.20;;;9.20;75.00;;;;;;5132934;27;20030;-81
2023/12/21 00:39:29;;;;;;;6.38;5.03;;;9.20;75.00;;;;;;5123060;27;20107;-81
2023/12/21 00:41:54;;;;;;;6.15;4.80;;;9.20;75.00;;;;;;5127034;27;20380;-81
2023/12/21 00:44:20;;;;;;;6.63;4.85;;;9.20;75.10;;;;;;5126633;27;20446;-81
2023/12/21 00:46:46;;;;;;;7.53;5.68;;;9.20;75.00;;;;;;5105447;28;20059;-81
2023/12/21 00:49:11;;;;;;;6.63;5.32;;;9.20;75.00;;;;;;5130716;27;20058;-82
2023/12/21 00:51:37;;;;;;;7.28;5.38;;;9.20;75.00;;;;;;5134707;27;20035;-81
2023/12/21 00:54:03;;;;;;;6.47;5.07;;;9.20;75.10;;;;;;5108591;27;20031;-81
2023/12/21 00:56:30;;;;;;;7.38;4.85;;;9.20;75.10;;;;;;5115465;27;20046;-81
2023/12/21 00:58:59;;;;;;;6.57;5.03;;;9.20;75.00;;;;;;5127858;27;20047;-81
2023/12/21 01:01:26;;;;;;;7.22;5.03;;;9.20;75.00;;;;;;5106757;28;20027;-82
2023/12/21 01:03:52;;;;;;;6.07;4.75;;;9.20;75.00;;;;;;5116255;27;20032;-81
2023/12/21 01:06:18;;;;;;;6.57;5.18;;;9.20;75.00;;;;;;5130545;27;20484;-80
2023/12/21 01:08:44;;;;;;;5.97;4.47;;;9.20;75.00;;;;;;5117951;27;20071;-81
2023/12/21 01:11:10;;;;;;;6.35;4.97;;;9.20;75.00;;;;;;5135517;27;20476;-82
2023/12/21 01:13:37;;;;;;;5.90;4.80;;;9.20;75.00;;;;;;5123635;27;20121;-82
2023/12/21 01:16:06;;;;;;;6.70;5.18;;;9.20;75.00;;;;;;5111534;27;20019;-82
2023/12/21 01:18:33;;;;;;;7.18;5.40;;;9.20;75.00;;;;;;5135544;27;20031;-80
2023/12/21 01:20:59;;;;;;;7.15;5.40;;;9.20;75.00;;;;;;5108165;28;20031;-81
2023/12/21 01:23:25;;;;;;;7.63;5.65;;;9.20;75.00;;;;;;5119948;27;20027;-81
2023/12/21 01:25:51;;;;;;;7.20;5.63;;;9.20;75.00;;;;;;5123110;27;20023;-81
2023/12/21 01:28:16;;;;;;;5.88;4.70;;;9.20;74.90;;;;;;5114317;27;20423;-82
2023/12/21 01:30:42;;;;;;;6.80;4.97;;;9.20;74.90;;;;;;5122886;27;20046;-81
2023/12/21 01:33:08;;;;;;;8.68;6.05;;;9.20;74.90;;;;;;5130354;27;20168;-81
2023/12/21 01:35:34;;;;;;;7.57;5.03;;;9.20;74.90;;;;;;5108443;27;20096;-82
2023/12/21 01:37:59;;;;;;;6.50;5.55;;;9.20;74.90;;;;;;5123193;27;20032;-81
2023/12/21 01:40:25;;;;;;;6.57;5.20;;;9.10;74.90;;;;;;5127704;27;20057;-82
2023/12/21 01:42:51;;;;;;;7.75;5.32;;;9.10;74.80;;;;;;5118985;27;20019;-81
2023/12/21 01:45:18;;;;;;;6.25;4.75;;;9.10;74.80;;;;;;5113592;27;20202;-81
2023/12/21 01:47:46;;;;;;;6.95;5.20;;;9.10;74.80;;;;;;5129227;27;20030;-80
2023/12/21 01:50:12;;;;;;;5.85;4.75;;;9.10;74.80;;;;;;5099940;28;20052;-83
2023/12/21 01:52:39;;;;;;;6.53;5.13;;;9.10;74.80;;;;;;5103398;27;20046;-82
2023/12/21 01:55:07;;;;;;;7.05;5.40;;;9.10;74.80;;;;;;5135047;27;20031;-81
2023/12/21 01:57:33;;;;;;;7.57;5.55;;;9.10;74.80;;;;;;5121050;27;20036;-81
2023/12/21 01:59:59;;;;;;;8.13;5.60;;;9.10;74.80;;;;;;5132918;27;20030;-82
2023/12/21 02:02:25;;;;;;;7.28;5.38;;;9.10;74.80;;;;;;5117546;27;20469;-81
2023/12/21 02:04:51;;;;;;;6.63;5.60;;;9.10;74.80;;;;;;5106754;27;20105;-82
2023/12/21 02:07:18;;;;;;;6.40;5.00;;;9.10;74.80;;;;;;5116721;28;20512;-82
2023/12/21 02:09:43;;;;;;;7.95;5.93;;;9.10;74.80;;;;;;5107242;28;20465;-81
2023/12/21 02:12:10;;;;;;;6.93;5.18;;;9.10;74.70;;;;;;5100600;28;20039;-81
2023/12/21 02:14:36;;;;;;;6.75;5.40;;;9.10;75.40;;;;;;5123378;27;20591;-81
2023/12/21 02:17:15;;;;;;;6.70;5.57;;;9.00;74.80;;;;;;5133298;28;20094;-81
2023/12/21 02:19:41;;;;;;;7.35;5.78;;;9.00;74.70;;;;;;5104993;28;20035;-80
2023/12/21 02:22:09;;;;;;;8.10;6.10;;;9.00;74.80;;;;;;5124910;28;20031;-82
2023/12/21 02:24:35;;;;;;;7.97;5.85;;;9.00;74.70;;;;;;5097365;28;20047;-82
2023/12/21 02:27:01;;;;;;;6.68;5.53;;;9.00;74.90;;;;;;5104217;28;20031;-80
2023/12/21 02:29:28;;;;;;;7.97;5.78;;;8.90;74.70;;;;;;5114099;27;20381;-82
2023/12/21 02:31:53;;;;;;;8.00;5.60;;;8.90;74.80;;;;;;5131442;28;20034;-82
2023/12/21 02:34:19;;;;;;;7.40;5.70;;;8.90;74.80;;;;;;5116580;28;20105;-80
2023/12/21 02:36:45;;;;;;;8.27;5.38;;;8.90;74.80;;;;;;5114612;28;20047;-81
2023/12/21 02:39:11;;;;;;;7.35;5.68;;;8.90;74.80;;;;;;5118331;28;20043;-80
2023/12/21 02:41:37;;;;;;;6.90;5.47;;;8.90;74.80;;;;;;5129149;27;20032;-81
2023/12/21 02:44:03;;;;;;;7.30;5.65;;;8.90;74.80;;;;;;5117315;28;20089;-81
2023/12/21 02:46:28;;;;;;;7.00;5.03;;;8.90;74.70;;;;;;5104501;28;20035;-82
2023/12/21 02:48:54;;;;;;;7.45;6.15;;;8.80;74.70;;;;;;5123469;28;20019;-81
2023/12/21 02:51:20;;;;;;;7.40;5.50;;;8.80;74.60;;;;;;5123022;28;20020;-82
2023/12/21 02:53:46;;;;;;;8.27;5.40;;;8.80;74.60;;;;;;5122694;28;20019;-81
2023/12/21 02:56:12;;;;;;;7.15;5.78;;;8.80;74.60;;;;;;5125120;27;20043;-81
2023/12/21 02:58:37;;;;;;;7.28;5.38;;;8.80;74.50;;;;;;5114650;28;20043;-81
2023/12/21 03:01:04;;;;;;;7.57;6.22;;;8.80;74.50;;;;;;5122671;27;20422;-81
2023/12/21 03:03:30;;;;;;;7.47;6.00;;;8.80;74.40;;;;;;5128561;28;20027;-82
2023/12/21 03:05:55;;;;;;;7.97;6.13;;;8.80;74.30;;;;;;5114604;28;20016;-80
2023/12/21 03:08:22;;;;;;;9.20;6.97;;;8.70;74.20;;;;;;5134274;27;20034;-81
2023/12/21 03:10:48;;;;;;;6.97;5.78;;;8.70;74.10;;;;;;5116724;28;20026;-82
2023/12/21 03:13:14;;;;;;;8.10;6.55;;;8.70;74.20;;;;;;5112066;28;20381;-82
2023/12/21 03:15:40;;;;;;;8.38;6.32;;;8.70;74.10;;;;;;5101062;28;20369;-80
2023/12/21 03:18:05;;;;;;;8.45;6.35;;;8.70;74.00;;;;;;5118205;27;20465;-81
2023/12/21 03:20:31;;;;;;;8.60;6.70;;;8.70;74.00;;;;;;5123192;27;20039;-82
2023/12/21 03:22:57;;;;;;;8.57;5.90;;;8.60;73.90;;;;;;5129686;27;20040;-81
2023/12/21 03:25:23;;;;;;;9.80;6.55;;;8.60;73.90;;;;;;5120142;27;20027;-81
2023/12/21 03:27:49;;;;;;;8.00;5.90;;;8.60;73.90;;;;;;5119150;27;20031;-82
2023/12/21 03:30:14;;;;;;;8.68;5.88;;;8.60;73.90;;;;;;5115811;28;20126;-81
2023/12/21 03:32:42;;;;;;;7.28;5.95;;;8.60;73.80;;;;;;5117601;27;20099;-82
2023/12/21 03:35:09;;;;;;;7.72;6.00;;;8.60;73.70;;;;;;5122219;27;20110;-82
2023/12/21 03:37:36;;;;;;;7.63;5.50;;;8.60;73.60;;;;;;5120491;27;20035;-82
2023/12/21 03:40:01;;;;;;;7.82;5.75;;;8.50;73.50;;;;;;5106451;27;20408;-82
2023/12/21 03:42:27;;;;;;;7.85;5.82;;;8.50;73.40;;;;;;5115801;27;20055;-81
2023/12/21 03:44:53;;;;;;;7.60;5.45;;;8.50;73.40;;;;;;5118152;27;20056;-81
2023/12/21 03:47:19;;;;;;;7.18;5.38;;;8.50;73.40;;;;;;5134041;27;20031;-81
2023/12/21 03:49:44;;;;;;;7.68;5.45;;;8.50;73.90;;;;;;5121516;27;20452;-81
2023/12/21 03:52:10;;;;;;;7.05;5.10;;;8.50;73.30;;;;;;5117720;27;20031;-81
2023/12/21 03:54:36;;;;;;;7.38;5.30;;;8.40;73.20;;;;;;5116534;28;20401;-83
2023/12/21 03:57:02;;;;;;;7.03;5.35;;;8.40;73.20;;;;;;5112674;27;20036;-81
2023/12/21 03:59:28;;;;;;;7.45;5.38;;;8.40;73.10;;;;;;5132663;27;20035;-83
2023/12/21 04:01:53;;;;;;;7.82;5.63;;;8.40;73.10;;;;;;5134949;27;20031;-80
2023/12/21 04:04:19;;;;;;;7.03;5.22;;;8.40;73.00;;;;;;5134175;27;20019;-81
2023/12/21 04:06:45;;;;;;;6.95;5.22;;;8.40;73.00;;;;;;5136194;27;20031;-81
2023/12/21 04:09:11;;;;;;;6.65;5.32;;;8.40;72.90;;;;;;5108285;27;20019;-79
2023/12/21 04:11:37;;;;;;;6.35;5.20;;;8.40;73.00;;;;;;5109556;27;20525;-81
2023/12/21 04:14:03;;;;;;;6.50;4.78;;;8.30;72.90;;;;;;5119526;27;20038;-81
2023/12/21 04:16:29;;;;;;;6.05;4.68;;;8.30;72.80;;;;;;5119396;27;20055;-82
2023/12/21 04:18:54;;;;;;;5.65;4.70;;;8.40;72.80;;;;;;5136840;27;20130;-81
2023/12/21 04:21:20;;;;;;;6.10;4.30;;;8.40;72.80;;;;;;5126249;27;20020;-81
2023/12/21 04:23:46;;;;;;;5.75;4.53;;;8.30;72.70;;;;;;5127189;27;20046;-84
2023/12/21 04:26:20;;;;;;;6.38;5.03;;;8.40;72.70;;;;;;5117261;27;20369;-82
2023/12/21 04:28:47;;;;;;;5.35;4.28;;;8.40;72.60;;;;;;5106909;27;20377;-80
2023/12/21 04:31:22;;;;;;;5.47;4.13;;;8.30;72.50;;;;;;5128903;27;20020;-83
2023/12/21 04:33:49;;;;;;;5.25;4.43;;;8.40;72.50;;;;;;5130853;27;20035;-81
2023/12/21 04:36:16;;;;;;;5.63;4.40;;;8.30;72.40;;;;;;5123370;27;20028;-81
2023/12/21 04:38:42;;;;;;;6.22;4.50;;;8.40;72.40;;;;;;5130903;27;20033;-82
2023/12/21 04:41:08;;;;;;;5.20;4.07;;;8.30;72.30;;;;;;5124245;27;20036;-80
2023/12/21 04:43:33;;;;;;;5.25;4.10;;;8.40;72.30;;;;;;5117894;27;20472;-83
2023/12/21 04:45:59;;;;;;;5.60;4.40;;;8.40;72.30;;;;;;5125578;27;20023;-81
2023/12/21 04:48:25;;;;;;;6.47;4.47;;;8.40;72.20;;;;;;5118115;27;20019;-82
2023/12/21 04:50:51;;;;;;;5.38;4.43;;;8.40;72.10;;;;;;5119688;27;20051;-80
2023/12/21 04:53:17;;;;;;;6.07;4.50;;;8.40;72.10;;;;;;5136351;27;20536;-80
2023/12/21 04:55:42;;;;;;;6.18;4.43;;;8.40;72.10;;;;;;5117659;27;20027;-82
2023/12/21 04:58:08;;;;;;;5.32;4.22;;;8.40;72.10;;;;;;5127362;27;20439;-82
2023/12/21 05:00:34;;;;;;;4.78;3.88;;;8.40;72.10;;;;;;5114075;28;20028;-81
2023/12/21 05:03:00;;;;;;;5.97;4.50;;;8.40;72.00;;;;;;5115401;28;20027;-81
2023/12/21 05:05:26;;;;;;;5.60;4.18;;;8.40;71.90;;;;;;5115784;27;20411;-81
2023/12/21 05:07:53;;;;;;;5.90;3.95;;;8.40;71.90;;;;;;5134793;27;20362;-83
2023/12/21 05:10:19;;;;;;;5.35;4.20;;;8.40;71.80;;;;;;5117469;27;20027;-81
2023/12/21 05:12:45;;;;;;;5.03;4.18;;;8.40;71.80;;;;;;5117571;27;20054;-81
2023/12/21 05:15:10;;;;;;;6.15;4.13;;;8.40;71.70;;;;;;5135559;27;20038;-81
2023/12/21 05:17:36;;;;;;;4.95;4.03;;;8.40;72.20;;;;;;5136549;27;20043;-85
2023/12/21 05:20:03;;;;;;;5.88;4.82;;;8.40;71.70;;;;;;5137696;27;20059;-86
2023/12/21 05:22:28;;;;;;;6.03;4.25;;;8.40;71.60;;;;;;5108654;28;20031;-82
2023/12/21 05:24:54;;;;;;;5.03;4.30;;;8.40;71.50;;;;;;5116835;28;20024;-83
2023/12/21 05:27:20;;;;;;;5.45;4.53;;;8.40;71.50;;;;;;5129406;27;20035;-80
2023/12/21 05:29:46;;;;;;;4.43;3.80;;;8.40;71.50;;;;;;5119353;27;20023;-80
2023/12/21 05:32:11;;;;;;;5.38;4.38;;;8.40;71.50;;;;;;5135201;27;20456;-79
2023/12/21 05:34:37;;;;;;;5.53;4.20;;;8.40;71.40;;;;;;5132717;27;20087;-82
2023/12/21 05:37:03;;;;;;;4.85;3.92;;;8.40;71.40;;;;;;5111249;27;20030;-87
2023/12/21 05:39:29;;;;;;;5.07;4.32;;;8.40;71.40;;;;;;5117078;27;20485;-84
2023/12/21 05:41:55;;;;;;;5.28;4.18;;;8.40;71.40;;;;;;5138987;27;20032;-86
2023/12/21 05:44:21;;;;;;;4.65;3.97;;;8.40;71.40;;;;;;5123195;27;20161;-85
2023/12/21 05:46:47;;;;;;;5.57;4.25;;;8.40;71.40;;;;;;5101795;28;20027;-88
2023/12/21 05:49:12;;;;;;;5.22;4.20;;;8.40;71.30;;;;;;5120881;28;20077;-85
2023/12/21 05:51:39;;;;;;;5.28;4.10;;;8.40;71.20;;;;;;5127262;27;20027;-84
2023/12/21 05:54:07;;;;;;;5.38;4.45;;;8.40;71.20;;;;;;5122488;27;20019;-87
2023/12/21 05:56:35;;;;;;;4.20;3.53;;;8.40;71.30;;;;;;5127830;27;20118;-86
2023/12/21 05:59:01;;;;;;;4.57;3.75;;;8.40;71.20;;;;;;5122333;28;20419;-88
2023/12/21 06:01:31;;;;;;;5.72;4.10;;;8.40;71.10;;;;;;5121063;28;20067;-88
2023/12/21 06:03:56;;;;;;;4.82;3.70;;;8.40;71.10;;;;;;5103159;28;20031;-88
2023/12/21 06:06:23;;;;;;;4.93;3.85;;;8.40;71.10;;;;;;5122346;28;20087;-88
2023/12/21 06:08:48;;;;;;;4.32;3.63;;;8.40;71.00;;;;;;5104610;28;20099;-88
2023/12/21 06:11:14;;;;;;;4.30;3.80;;;8.40;71.00;;;;;;5120847;28;20457;-88
2023/12/21 06:13:40;;;;;;;5.18;4.25;;;8.40;70.90;;;;;;5120996;28;20024;-87
2023/12/21 06:16:11;;;;;;;4.50;3.95;;;8.40;70.90;;;;;;5122019;28;20016;-88
2023/12/21 06:18:43;;;;;;;4.65;3.78;;;8.50;70.90;;;;;;5120556;28;20043;-86
2023/12/21 06:21:09;;;;;;;5.30;4.35;;;8.40;70.90;;;;;;5119472;28;20525;-89
2023/12/21 06:23:34;;;;;;;5.07;3.85;;;8.50;70.90;;;;;;5118413;28;20047;-87
2023/12/21 06:26:00;;;;;;;5.25;3.90;;;8.40;70.80;;;;;;5120855;28;20023;-87
2023/12/21 06:28:27;;;;;;;5.38;4.20;;;8.40;70.80;;;;;;5103985;28;20051;-88
2023/12/21 06:30:55;;;;;;;4.97;4.03;;;8.50;70.80;;;;;;5122387;28;20034;-88
2023/12/21 06:33:22;;;;;;;5.07;4.05;;;8.40;71.40;;;;;;5123769;28;20020;-88
2023/12/21 06:35:47;;;;;;;5.25;4.45;;;8.40;70.80;;;;;;5123569;28;20032;-89
2023/12/21 06:38:16;;;;;;;4.90;4.18;;;8.40;70.80;;;;;;5121894;28;20042;-88
2023/12/21 06:40:41;;;;;;;5.05;4.28;;;8.40;70.70;;;;;;5121837;28;20031;-88
2023/12/21 06:43:07;;;;;;;5.03;4.13;;;8.40;70.70;;;;;;5123067;28;20083;-89
2023/12/21 06:45:33;;;;;;;5.30;4.03;;;8.40;70.70;;;;;;5126629;27;20023;-88
2023/12/21 06:48:00;;;;;;;6.95;5.07;;;8.40;70.60;;;;;;5135376;28;20023;-90
2023/12/21 06:50:25;;;;;;;5.43;4.40;;;8.40;70.60;;;;;;5130779;27;20027;-81
2023/12/21 06:52:51;;;;;;;6.03;4.60;;;8.50;70.60;;;;;;5120603;27;20028;-81
2023/12/21 06:55:17;;;;;;;5.35;4.32;;;8.50;70.60;;;;;;5118070;28;20036;-83
2023/12/21 06:57:43;;;;;;;5.70;4.50;;;8.50;70.60;;;;;;5117599;28;20044;-81
2023/12/21 07:00:12;;;;;;;5.07;4.30;;;8.50;70.60;;;;;;5099293;28;20031;-80
2023/12/21 07:02:38;;;;;;;6.32;4.88;;;8.50;70.60;;;;;;5117988;28;20114;-83
2023/12/21 07:05:04;;;;;;;6.93;4.90;;;8.50;70.50;;;;;;5118114;28;20559;-80
2023/12/21 07:07:30;;;;;;;7.00;4.75;;;8.50;70.50;;;;;;5118707;27;20461;-81
2023/12/21 07:09:56;;;;;;;5.85;4.63;;;8.50;70.40;;;;;;5117453;28;20024;-82
2023/12/21 07:12:24;;;;;;;6.47;5.05;;;8.50;70.30;;;;;;5099071;28;20020;-83
2023/12/21 07:14:50;;;;;;;6.75;5.22;;;8.60;70.40;;;;;;5123611;27;20019;-82
2023/12/21 07:17:16;;;;;;;5.90;4.60;;;8.60;70.40;;;;;;5119517;27;20528;-82
2023/12/21 07:19:42;;;;;;;5.97;4.47;;;8.60;70.30;;;;;;5118768;27;20035;-81
2023/12/21 07:22:08;;;;;;;5.80;4.60;;;8.60;70.20;;;;;;5098833;28;20537;-82
2023/12/21 07:24:34;;;;;;;5.40;4.43;;;8.60;70.20;;;;;;5099017;28;20023;-81
2023/12/21 07:27:00;;;;;;;5.82;4.50;;;8.60;70.10;;;;;;5118447;27;20085;-82
2023/12/21 07:29:26;;;;;;;6.97;4.70;;;8.70;70.10;;;;;;5121005;27;20035;-85
2023/12/21 07:31:52;;;;;;;6.25;4.60;;;8.70;70.10;;;;;;5125575;27;20019;-81
2023/12/21 07:34:18;;;;;;;6.25;4.90;;;8.70;70.00;;;;;;5134345;27;20035;-83
2023/12/21 07:36:44;;;;;;;5.80;4.85;;;8.80;69.90;;;;;;5117401;27;20466;-83
2023/12/21 07:39:11;;;;;;;5.45;4.30;;;8.80;69.90;;;;;;5117695;28;20035;-84
2023/12/21 07:41:37;;;;;;;6.93;5.13;;;8.80;69.90;;;;;;5118611;28;20034;-83
2023/12/21 07:44:03;;;;;;;6.47;4.90;;;8.80;69.80;;;;;;5117258;28;20388;-83
2023/12/21 07:46:29;;;;;;;6.22;4.47;;;8.80;69.70;;;;;;5100937;28;20057;-85
2023/12/21 07:48:55;;;;;;;5.97;4.70;;;8.90;69.70;;;;;;5099835;28;20047;-84
2023/12/21 07:51:21;;;;;;;6.05;4.88;;;8.90;69.60;;;;;;5117916;28;20028;-84
2023/12/21 07:53:46;;;;;;;6.60;4.97;;;8.90;69.60;;;;;;5118932;27;20055;-85
2023/12/21 07:56:12;;;;;;;5.43;4.40;;;8.90;69.50;;;;;;5126782;27;20047;-84
2023/12/21 07:58:38;;;;;;;5.95;4.65;;;9.00;69.50;;;;;;5125949;28;20067;-84
2023/12/21 08:01:05;;;;;;;5.80;4.70;;;9.00;69.40;;;;;;5126010;28;20419;-84
2023/12/21 08:03:31;;;;;;;6.80;4.97;;;9.00;69.40;;;;;;5121598;28;20024;-83
2023/12/21 08:05:56;;;;;;;5.50;4.63;;;9.00;69.30;;;;;;5115506;28;20148;-83
2023/12/21 08:08:22;;;;;;;5.90;4.60;;;9.00;69.20;;;;;;5118898;28;20059;-84
2023/12/21 08:10:50;;;;;;;6.18;4.60;;;9.00;69.10;;;;;;5123495;28;20031;-83
2023/12/21 08:13:16;;;;;;;5.88;4.72;;;9.00;69.10;;;;;;5116610;28;20028;-85
2023/12/21 08:15:42;;;;;;;5.53;4.80;;;9.10;69.20;;;;;;5098404;28;20034;-85
2023/12/21 08:18:13;;;;;;;5.32;4.38;;;9.10;69.10;;;;;;5116668;28;20039;-85
2023/12/21 08:20:42;;;;;;;5.03;4.30;;;9.10;69.10;;;;;;5117345;28;20031;-83
2023/12/21 08:23:10;;;;;;;6.28;4.65;;;9.10;69.10;;;;;;5098501;28;20059;-84
2023/12/21 08:25:36;;;;;;;6.40;4.43;;;9.10;69.10;;;;;;5098596;28;20454;-82
2023/12/21 08:28:05;;;;;;;6.68;4.25;;;9.10;69.00;;;;;;5117057;28;20034;-87
2023/12/21 08:30:31;;;;;;;5.30;4.30;;;9.10;69.00;;;;;;5098386;28;20028;-84
2023/12/21 08:32:57;;;;;;;6.57;4.18;;;9.20;69.00;;;;;;5116727;28;20047;-83
2023/12/21 08:35:23;;;;;;;5.63;4.38;;;9.20;69.60;;;;;;5116080;28;20035;-85
2023/12/21 08:37:48;;;;;;;6.57;4.40;;;9.20;69.00;;;;;;5116751;28;20024;-83
2023/12/21 08:40:15;;;;;;;5.47;4.00;;;9.20;68.90;;;;;;5116535;28;20032;-84
2023/12/21 08:42:43;;;;;;;5.05;4.22;;;9.20;68.90;;;;;;5099936;28;20059;-85
2023/12/21 08:45:12;;;;;;;5.68;4.32;;;9.20;68.90;;;;;;5103315;28;20100;-85
2023/12/21 08:47:40;;;;;;;5.30;4.10;;;9.20;68.80;;;;;;5100456;28;20335;-82
2023/12/21 08:50:08;;;;;;;5.88;4.50;;;9.20;68.80;;;;;;5116393;28;20081;-85
2023/12/21 08:52:36;;;;;;;6.25;4.78;;;9.30;68.90;;;;;;5116139;28;20495;-84
2023/12/21 08:55:09;;;;;;;6.60;4.45;;;9.20;68.80;;;;;;5116035;28;20039;-84
2023/12/21 08:57:40;;;;;;;5.15;4.40;;;9.30;68.80;;;;;;5116159;28;20126;-83
2023/12/21 09:00:12;;;;;;;4.75;4.07;;;9.30;68.80;;;;;;5115363;28;20428;-83
2023/12/21 09:02:39;;;;;;;5.78;4.18;;;9.30;68.80;;;;;;5116495;28;20496;-84
2023/12/21 09:05:06;;;;;;;5.43;4.53;;;9.30;68.80;;;;;;5116114;28;20023;-84
2023/12/21 09:07:34;;;;;;;5.93;4.63;;;9.30;68.80;;;;;;5115823;28;20035;-83
2023/12/21 09:10:03;;;;;;;5.53;3.97;;;9.30;68.70;;;;;;5097755;28;20020;-82
2023/12/21 09:12:29;;;;;;;4.80;3.88;;;9.30;68.70;;;;;;5097584;28;20023;-84
2023/12/21 09:14:55;;;;;;;4.65;3.70;;;9.30;68.70;;;;;;5114276;28;20028;-84
2023/12/21 09:17:21;;;;;;;7.43;4.22;;;9.30;68.60;;;;;;5097315;28;20027;-84
2023/12/21 09:19:47;;;;;;;6.18;4.38;;;9.30;68.50;;;;;;5115464;28;20530;-84
2023/12/21 09:22:19;;;;;;;5.53;4.05;;;9.30;68.50;;;;;;5117101;28;20433;-83
2023/12/21 09:24:45;;;;;;;5.03;3.92;;;9.30;68.50;;;;;;5116561;28;20061;-84
2023/12/21 09:27:11;;;;;;;4.90;3.50;;;9.40;68.50;;;;;;5116569;28;20028;-86
2023/12/21 09:29:37;;;;;;;4.93;3.67;;;9.30;68.40;;;;;;5116587;28;20461;-85
2023/12/21 09:32:03;;;;;;;5.10;3.70;;;9.30;68.40;;;;;;5097973;28;20028;-83
2023/12/21 09:34:31;;;;;;;3.95;3.40;;;9.40;68.40;;;;;;5115385;28;20023;-86
2023/12/21 09:36:57;;;;;;;4.60;3.72;;;9.40;68.40;;;;;;5115785;28;20319;-84
2023/12/21 09:39:23;;;;;;;5.00;3.70;;;9.40;68.30;;;;;;5115697;28;20525;-84
2023/12/21 09:41:50;;;;;;;4.53;3.70;;;9.40;68.20;;;;;;5097556;28;20118;-85
2023/12/21 09:44:20;;;;;;;4.05;3.33;;;9.40;68.20;;;;;;5116552;28;20023;-86
2023/12/21 09:46:48;;;;;;;4.22;3.33;;;9.50;68.20;;;;;;5115161;28;20406;-84
2023/12/21 09:49:16;;;;;;;3.80;3.10;;;9.50;68.10;;;;;;5114829;28;20020;-84
2023/12/21 09:51:44;;;;;;;3.90;3.40;;;9.50;68.00;;;;;;5097095;28;20031;-83
2023/12/21 09:54:11;;;;;;;3.35;3.00;;;9.50;68.00;;;;;;5114867;28;20015;-85
2023/12/21 09:56:38;;;;;;;4.30;3.28;;;9.60;68.00;;;;;;5096668;28;20052;-86
2023/12/21 09:59:05;;;;;;;4.63;3.22;;;9.60;67.90;;;;;;5115068;28;20042;-84
2023/12/21 10:01:31;;;;;;;4.43;3.30;;;9.70;67.80;;;;;;5115480;28;20031;-86
2023/12/21 10:04:00;;;;;;;4.65;3.35;;;9.60;67.70;;;;;;5115318;28;20024;-84
2023/12/21 10:06:26;;;;;;;4.50;3.40;;;9.70;67.70;;;;;;5096558;28;20059;-84
2023/12/21 10:08:53;;;;;;;4.95;3.60;;;9.70;67.70;;;;;;5114965;28;20148;-85
2023/12/21 10:11:21;;;;;;;3.92;3.33;;;9.70;67.60;;;;;;5096644;28;20024;-85
2023/12/21 10:13:53;;;;;;;4.13;3.40;;;9.70;67.60;;;;;;5097159;28;20031;-85
2023/12/21 10:16:19;;;;;;;3.60;3.10;;;9.70;67.60;;;;;;5096661;28;20050;-83
2023/12/21 10:18:49;;;;;;;4.38;3.25;;;9.70;67.60;;;;;;5096333;28;20537;-84
2023/12/21 10:21:16;;;;;;;4.22;3.40;;;9.70;67.50;;;;;;5097147;28;20063;-85
2023/12/21 10:23:46;;;;;;;4.30;3.40;;;9.70;67.50;;;;;;5096656;28;20042;-84
2023/12/21 10:26:14;;;;;;;3.72;3.17;;;9.70;67.50;;;;;;5116480;28;20047;-83
2023/12/21 10:28:42;;;;;;;4.57;3.35;;;9.70;67.40;;;;;;5118423;28;20092;-84
2023/12/21 10:31:10;;;;;;;3.88;3.22;;;9.70;67.40;;;;;;5118813;28;20119;-85
2023/12/21 10:33:36;;;;;;;4.80;3.28;;;9.70;67.30;;;;;;5118726;28;20026;-84
2023/12/21 10:36:03;;;;;;;3.88;3.17;;;9.70;67.40;;;;;;5118771;28;20106;-85
2023/12/21 10:38:34;;;;;;;4.30;3.20;;;9.70;67.30;;;;;;5118233;28;20043;-85
2023/12/21 10:41:05;;;;;;;5.70;3.63;;;9.70;67.30;;;;;;5118522;28;20024;-84
2023/12/21 10:43:34;;;;;;;3.90;3.30;;;9.70;67.20;;;;;;5118705;28;20069;-83
2023/12/21 10:46:00;;;;;;;4.47;3.60;;;9.70;67.10;;;;;;5118778;28;20480;-83
2023/12/21 10:48:30;;;;;;;3.80;3.13;;;9.70;67.10;;;;;;5118643;28;20432;-85
2023/12/21 10:50:58;;;;;;;4.20;3.50;;;9.70;67.10;;;;;;5118728;28;20034;-83
2023/12/21 10:53:27;;;;;;;4.43;3.75;;;9.70;67.10;;;;;;5120923;28;20026;-82
2023/12/21 10:55:57;;;;;;;4.80;3.60;;;9.70;67.00;;;;;;5101415;28;20027;-83
2023/12/21 10:58:26;;;;;;;4.05;3.22;;;9.70;66.90;;;;;;5118239;28;20054;-84
2023/12/21 11:00:55;;;;;;;4.40;3.50;;;9.70;66.90;;;;;;5099683;28;20031;-84
2023/12/21 11:03:21;;;;;;;4.55;3.50;;;9.70;67.00;;;;;;5118582;28;20062;-85
2023/12/21 11:05:51;;;;;;;4.18;3.40;;;9.70;66.90;;;;;;5118838;28;20051;-84
2023/12/21 11:08:18;;;;;;;4.10;3.20;;;9.70;66.90;;;;;;5119473;28;20032;-84
2023/12/21 11:10:45;;;;;;;4.15;3.22;;;9.70;66.90;;;;;;5119198;28;20031;-84
2023/12/21 11:13:10;;;;;;;4.07;3.45;;;9.70;66.80;;;;;;5100608;28;20087;-83
2023/12/21 11:15:36;;;;;;;4.65;3.60;;;9.70;66.70;;;;;;5118278;28;20028;-84
2023/12/21 11:18:15;;;;;;;3.63;3.25;;;9.80;66.80;;;;;;5099910;28;20039;-85
2023/12/21 11:20:54;;;;;;;4.40;3.50;;;9.70;66.70;;;;;;5117701;28;20051;-84
2023/12/21 11:23:21;;;;;;;4.22;3.50;;;9.70;66.60;;;;;;5117836;28;20023;-85
2023/12/21 11:25:59;;;;;;;4.18;3.50;;;9.70;66.70;;;;;;5117648;28;20091;-85
2023/12/21 11:28:32;;;;;;;4.28;3.30;;;9.70;66.70;;;;;;5117426;28;20024;-84
2023/12/21 11:30:58;;;;;;;4.45;3.50;;;9.70;66.60;;;;;;5099061;28;20476;-83
2023/12/21 11:33:30;;;;;;;4.60;3.63;;;9.70;66.60;;;;;;5099588;28;20031;-85
2023/12/21 11:35:59;;;;;;;4.22;3.28;;;9.70;66.60;;;;;;5117461;28;20051;-84
2023/12/21 11:38:58;;;;;;;3.70;3.20;;;9.70;66.60;;;;;;5098205;28;20363;-83
2023/12/21 11:41:24;;;;;;;4.10;3.60;;;9.70;66.50;;;;;;5117025;28;20055;-84
2023/12/21 11:44:03;;;;;;;4.63;3.40;;;9.70;66.60;;;;;;5117941;28;20369;-85
2023/12/21 11:46:36;;;;;;;5.47;3.85;;;9.70;66.50;;;;;;5099033;28;20427;-82
2023/12/21 11:49:02;;;;;;;4.07;3.20;;;9.80;66.60;;;;;;5116762;28;20028;-83
2023/12/21 11:51:28;;;;;;;4.63;3.60;;;9.70;66.50;;;;;;5117215;28;20028;-84
2023/12/21 11:53:54;;;;;;;4.75;3.95;;;9.80;66.50;;;;;;5117111;28;20026;-84
2023/12/21 11:56:20;;;;;;;4.18;3.20;;;9.80;66.40;;;;;;5117022;28;20020;-84
2023/12/21 11:58:50;;;;;;;5.35;3.60;;;9.80;66.40;;;;;;5098856;28;20488;-84
2023/12/21 12:01:27;;;;;;;4.35;3.60;;;9.80;66.30;;;;;;5099470;28;20118;-84
2023/12/21 12:03:52;;;;;;;4.80;3.40;;;9.80;66.30;;;;;;5100224;28;20527;-84
2023/12/21 12:06:21;;;;;;;4.40;3.45;;;9.80;66.30;;;;;;5118116;28;20054;-85
2023/12/21 12:08:47;;;;;;;4.25;3.47;;;9.80;66.30;;;;;;5117393;28;20374;-84
2023/12/21 12:11:13;;;;;;;3.42;3.13;;;9.80;66.30;;;;;;5116923;28;20024;-84
2023/12/21 12:13:39;;;;;;;3.72;3.17;;;9.80;66.30;;;;;;5116586;28;20016;-84
2023/12/21 12:16:08;;;;;;;4.10;3.10;;;9.80;66.80;;;;;;5098217;28;20053;-84
2023/12/21 12:18:34;;;;;;;3.67;3.30;;;9.80;66.30;;;;;;5116561;28;20365;-85
2023/12/21 12:21:00;;;;;;;4.75;2.90;;;9.80;66.20;;;;;;5116863;28;20035;-83
2023/12/21 12:23:27;;;;;;;4.88;3.45;;;9.80;66.20;;;;;;5117166;28;20043;-83
2023/12/21 12:25:53;;;;;;;3.85;3.08;;;9.80;66.20;;;;;;5117674;28;20046;-83
2023/12/21 12:28:21;;;;;;;3.75;3.25;;;9.80;66.20;;;;;;5099582;28;20028;-85
2023/12/21 12:30:48;;;;;;;3.75;3.15;;;9.70;66.10;;;;;;5098553;28;20100;-84
2023/12/21 12:33:14;;;;;;;4.45;3.50;;;9.70;66.20;;;;;;5116267;28;20491;-84
2023/12/21 12:35:42;;;;;;;3.53;2.92;;;9.70;66.10;;;;;;5116242;28;20074;-82
2023/12/21 12:38:08;;;;;;;3.20;2.75;;;9.70;66.10;;;;;;5098372;28;20119;-84
2023/12/21 12:40:35;;;;;;;3.95;3.25;;;9.70;66.10;;;;;;5098074;28;20111;-84
2023/12/21 12:43:01;;;;;;;4.07;3.30;;;9.70;66.10;;;;;;5116025;28;20023;-84
2023/12/21 12:45:35;;;;;;;4.35;3.30;;;9.70;66.00;;;;;;5097738;28;20110;-85
2023/12/21 12:48:04;;;;;;;3.80;3.42;;;9.70;66.10;;;;;;5098824;28;20027;-83
2023/12/21 12:50:30;;;;;;;3.70;3.08;;;9.70;66.10;;;;;;5118106;28;20023;-84
2023/12/21 12:52:56;;;;;;;4.18;3.40;;;9.70;66.10;;;;;;5116222;28;20400;-85
2023/12/21 12:55:23;;;;;;;3.80;3.13;;;9.70;66.10;;;;;;5098200;28;20034;-85